Terminal Aerodrome Forecast
Issued by NWS

Home | Current Version | Previous Version | Text Only | Print | Product List | Glossary On
Versions: 1 2 3 4 5 6 7 8 9 10 11 12 13
000
FTUS44 KLZK 031700
TAFLLQ
TAF
KLLQ 031739Z 0318/0418 21009G17KT P6SM SCT050
     FM040100 18003KT P6SM SCT250
     FM041500 19006KT P6SM SCT250=

USA.gov is the U.S. government's official web portal to all federal, state and local government web resources and services.